Tiempo atmosférico en la estación meteorológica de Grazalema, Cádiz (900 m.)



Fecha
DESCASC
Temp. máxima en grados centígrados (hora)
DESCASC
Temp. mínima en grados centígrados (hora)
DESCASC
Temp. media en grados centígrados
DESCASC
Racha de viento máxima en m/sg (hora)
DESCASC
Velocidad máxima media en intervalos de 10 minutos(hora)
DESCASC
Precipitaciones diarias en mm
DESCASC
Precipitaciones de 00:00 a 06:00 en mm
DESCASC
Precipitaciones de 06:00 a 12:00 en mm
DESCASC
Precipitaciones de 12:00 a 18:00 en mm
DESCASC
Precipitaciones de 18:00 a 24:00 en mm
DESCASC
17-10-2019 20.6 (15:30) 8.2 (04:50) 14.4 5.28 (14:40) 2.78 (14:40) 0 0 0 0 0
16-10-2019 20.6 (15:10) 5.3 (07:30) 13 5.28 (16:50) 2.22 (07:30) 0 0 0 0 0
15-10-2019 16.1 (15:20) 5.7 (08:40) 10.9 5.56 (01:40) 2.22 (00:40) 0.1 0.1 0 0 0
14-10-2019 22.3 (00:10) 11.3 (23:59) 16.8 11.11 (05:20) 3.06 (23:30) 17.1 0 6.9 1.3 8.9
13-10-2019 27.5 (14:40) 14.4 (00:00) 20.9 8.89 (16:10) 3.33 (15:40) 0 0 0 0 0
12-10-2019 27.8 (13:50) 16.9 (00:00) 22.3 6.39 (15:20) 3.33 (15:20) 0 0 0 0 0
11-10-2019 26.5 (15:00) 17.7 (00:00) 22.1 10.83 (02:50) 3.61 (02:50) 0 0 0 0 0
10-10-2019 26.3 (14:10) 16.3 (00:00) 21.3 7.78 (23:59) 3.33 (23:59) 0 0 0 0 0
09-10-2019 28.6 (15:50) 15.1 (00:00) 21.9 4.17 (12:50) 2.78 (13:00) 0 0 0 0 0
08-10-2019 27.4 (12:40) 16.2 (00:00) 21.8 5.83 (14:40) 2.78 (16:30) 0 0 0 0 0
07-10-2019 28.5 (16:20) 14.1 (00:00) 21.3 6.39 (15:00) 2.78 (12:30) 0 0 0 0 0
06-10-2019 26.7 (16:10) 12.9 (00:00) 19.8 5.83 (13:20) 3.33 (13:20) 0 0 0 0 0
05-10-2019 25.5 (15:30) 12.2 (00:00) 18.8 4.17 (14:40) 2.5 (04:00) 0 0 0 0 0
04-10-2019 27.5 (14:40) 13.2 (00:00) 20.3 5 (15:40) 2.22 (06:50) 0 0 0 0 0
03-10-2019 24.4 (15:00) 12.4 (00:00) 18.4 6.11 (18:20) 2.22 (07:10) 0 0 0 0 0
02-10-2019 23.4 (15:10) 12.4 (00:00) 17.9 7.5 (01:10) 2.78 (01:10) 0 0 0 0 0
01-10-2019 25.9 (14:00) 16.6 (00:00) 21.3 7.78 (22:10) 3.33 (22:10) 0 0 0 0 0
30-09-2019 29.4 (16:50) 13.4 (00:00) 21.4 5.28 (16:00) 2.5 (23:50) 0 0 0 0 0
29-09-2019 28.8 (15:20) 16.3 (00:00) 22.5 5.28 (16:50) 2.78 (05:30) 0 0 0 0 0
28-09-2019 30.4 (15:10) 15.2 (00:00) 22.8 6.11 (15:50) 2.5 (06:20) 0 0 0 0 0
27-09-2019 28.2 (14:50) 13.8 (00:00) 21 6.11 (15:30) 2.5 (15:30) 0 0 0 0 0
26-09-2019 28.4 (14:50) 13 (00:00) 20.7 5.28 (15:00) 2.5 (00:20) 0 0 0 0 0
25-09-2019 26.2 (14:20) 14.5 (00:00) 20.4 6.11 (00:30) 2.22 (23:00) 0 0 0 0 0
24-09-2019 28 (15:30) 13 (00:00) 20.5 5.83 (23:59) 2.78 (13:50) 0 0 0 0 0
23-09-2019 26 (16:10) 10.4 (00:00) 18.2 4.17 (14:50) 2.22 (14:40) 0 0 0 0 0
22-09-2019 19.6 (17:20) 13 (00:00) 16.3 6.39 (05:30) 2.5 (05:40) 4.6 0 3.4 1.2 0
21-09-2019 21.8 (14:50) 14.9 (00:00) 18.3 5.28 (13:30) 1.94 (19:30) 0 0 0 0 0
20-09-2019 22.3 (16:20) 15.2 (00:00) 18.7 7.22 (10:40) 2.78 (12:20) 0 0 0 0 0

Gráficas

Temp. máximas Temp. mínimas Temp. medias Precipitaciones Rachas de viento máximas Velocidades máximas media en intervalos de 10 minutos

Datos horarios

Fecha y hora oficial Temperatura (ºC) Velocidad del viento (km/h) Dirección del viento Racha (km/h) Dirección de racha Precipitación (mm) Presión (hPa) Tendencia (hPa) Humedad (%)
2019-10-19 23:00:00 14.1 8 Sudoeste 30 Sudoeste 6.7 906.6 -0.2 71
2019-10-19 22:00:00 14.9 7 Oeste 33 Oeste 0.3 906.2 -0.9 71
2019-10-19 21:00:00 14.9 10 Oeste 28 Sudoeste 1.7 906.5 -0.9 71
2019-10-19 20:00:00 14.9 6 Oeste 24 Sudoeste 0 906.8 -1.1 71
2019-10-19 19:00:00 15.1 6 Oeste 20 Sudoeste 0.1 907.1 -1.4 72
2019-10-19 18:00:00 15.1 6 Oeste 26 Sudoeste 0 907.4 -1.7 72
2019-10-19 17:00:00 14.9 5 Oeste 24 Sudoeste 0.1 907.9 -1.8 72
2019-10-19 16:00:00 14.5 4 Sudoeste 18 Sudoeste 2.4 908.5 -1.5 72
2019-10-19 15:00:00 14.4 6 Oeste 22 Noroeste 1.2 909.1 -1.3 70
2019-10-19 14:00:00 16.9 6 Oeste 27 Oeste 0 909.7 -0.8 48
2019-10-19 13:00:00 17.4 7 Oeste 26 Sudoeste 0 910 -0.5 49
2019-10-19 12:00:00 16 6 Sudoeste 24 Sudoeste 0 910.4 -0.1 56
2019-10-19 11:00:00 15.9 7 Oeste 18 Sudoeste 0 910.5 -0.1 59
2019-10-19 10:00:00 15.1 5 Oeste 15 Oeste 0 910.5 -0.1 61
2019-10-19 09:00:00 14 5 Sudoeste 14 Sur 0 910.5 0 62
2019-10-19 08:00:00 13.7 4 Oeste 11 Sudoeste 0 910.6 -0.1 65
2019-10-19 07:00:00 13.1 5 Oeste 13 Oeste 0 910.6 -0.6 70
2019-10-19 06:00:00 12.6 5 Oeste 11 Oeste 0 910.5 -1.5 64
2019-10-19 05:00:00 13.2 6 Oeste 12 Noroeste 0 910.7 -1.7 63
2019-10-19 04:00:00 12.7 7 Oeste 12 Noroeste 0 911.2 -1.8 66
2019-10-19 03:00:00 13.6 3 Oeste 16 Noroeste 0 912 -1.6 69
2019-10-19 02:00:00 13.8 3 Oeste 16 Noroeste 0 912.4 -1.2 69
2019-10-19 01:00:00 14.2 5 Noroeste 15 Sudoeste 0 913 -0.6 68
2019-10-19 00:00:00 15 4 Oeste 15 Oeste 0 913.6 -0.2 69
2019-10-18 23:00:00 14.6 0 Calma 14 Oeste 0 913.6 0.1 70
2019-10-18 22:00:00 14.9 4 Oeste 13 Oeste 0 913.6 -0.1 67
2019-10-18 21:00:00 15.7 6 Oeste 14 Noroeste 0 913.8 -0.3 66
2019-10-18 20:00:00 16.8 4 Oeste 15 Oeste 0 913.5 -0.8 59
2019-10-18 19:00:00 17.6 6 Oeste 14 Oeste 0 913.7 -0.9 52
2019-10-18 18:00:00 19.1 6 Oeste 14 Oeste 0 914.1 -1.1 46
2019-10-18 17:00:00 20.4 6 Sudoeste 15 Sudoeste 0 914.3 -1.6 43
2019-10-18 16:00:00 21.1 5 Sudoeste 15 Noroeste 0 914.6 -1.8 42
2019-10-18 15:00:00 20.8 4 Oeste 20 Sudoeste 0 915.2 -1.3 42
2019-10-18 14:00:00 20.1 7 Oeste 15 Noroeste 0 915.9 -0.5 48
2019-10-18 13:00:00 19.1 7 Este 15 Este 0 916.4 0.5 49
2019-10-18 12:00:00 18.4 6 Este 14 Este 0 916.5 1.1 48
2019-10-18 11:00:00 17.4 4 Este 9 Nordeste 0 916.4 1.1 51
2019-10-18 10:00:00 16.3 3 Este 6 Oeste 0 915.9 0.5 52
2019-10-18 09:00:00 12.1 4 Oeste 9 Oeste 0 915.4 0 69
2019-10-18 08:00:00 11.1 5 Oeste 9 Noroeste 0 915.3 -0.1 69
2019-10-18 07:00:00 11.2 5 Oeste 9 Oeste 0 915.4 -0.5 66
2019-10-18 06:00:00 10.9 6 Oeste 9 Oeste 0 915.4 -1 63
2019-10-18 05:00:00 11.3 6 Oeste 10 Noroeste 0 915.4 -1.1 62
2019-10-18 04:00:00 11.3 6 Oeste 9 Oeste 0 915.9 -0.9 62
2019-10-18 03:00:00 11.6 5 Oeste 9 Oeste 0 916.4 -0.7 60
2019-10-18 02:00:00 11.8 6 Oeste 9 Oeste 0 916.5 -0.2 57
2019-10-18 01:00:00 11.7 7 Oeste 10 Oeste 0 916.8 0.2 52
2019-10-18 00:00:00 11.7 3 Oeste 11 Oeste 0 917.1 1 52
2019-10-17 23:00:00 11.3 6 Oeste 11 Oeste 0 916.7 1.1 53
2019-10-17 22:00:00 12.2 6 Oeste 12 Noroeste 0 916.6 1.1 56
2019-10-17 21:00:00 13.9 5 Oeste 14 Sudoeste 0 916.1 0.6 51
2019-10-17 20:00:00 14.7 5 Oeste 10 Oeste 0 915.6 0 35
2019-10-17 19:00:00 17.5 4 Oeste 10 Noroeste 0 915.5 -0.4 26
2019-10-17 18:00:00 19.2 4 Oeste 11 Este 0 915.5 -0.7 24
2019-10-17 17:00:00 20 5 Este 13 Este 0 915.6 -1.2 24
2019-10-17 16:00:00 20.1 3 Sudeste 15 Este 0 915.9 -1.2 23
2019-10-17 15:00:00 20.3 6 Este 19 Este 0 916.2 -0.9 23
2019-10-17 14:00:00 19.1 7 Este 15 Este 0 916.8 -0.1 24
2019-10-17 13:00:00 18.2 6 Este 15 Este 0 917.1 0.8 28
2019-10-17 12:00:00 16.6 6 Este 12 Este 0 917.1 1.4 32
2019-10-17 11:00:00 15.6 6 Este 11 Noroeste 0 916.9 1.6 34
2019-10-17 10:00:00 14.2 0 Calma 11 Oeste 0 916.3 1.2 36
2019-10-17 09:00:00 10.4 4 Oeste 11 Oeste 0 915.7 0.9 43
2019-10-17 08:00:00 9.6 6 Oeste 11 Oeste 0 915.3 0.5 42
2019-10-17 07:00:00 9.2 7 Oeste 12 Noroeste 0 915.1 -0.1 40
2019-10-17 06:00:00 9.2 5 Oeste 10 Oeste 0 914.8 -0.7 43
2019-10-17 05:00:00 8.5 5 Oeste 11 Oeste 0 914.8 -0.9 43
2019-10-17 04:00:00 8.7 7 Oeste 11 Oeste 0 915.2 -0.8 43
2019-10-17 03:00:00 9 7 Oeste 13 Oeste 0 915.5 -0.7 44
2019-10-17 02:00:00 9.2 6 Oeste 10 Oeste 0 915.7 -0.5 45
2019-10-17 01:00:00 9.1 5 Oeste 10 Oeste 0 916 0.1 46
2019-10-17 00:00:00 9.6 5 Oeste 10 Oeste 0 916.2 0.6 46
2019-10-16 23:00:00 10.6 5 Oeste 11 Oeste 0 916.2 1.2 40
2019-10-16 22:00:00 13.3 5 Sudoeste 12 Sudoeste 0 915.9 1 35
2019-10-16 21:00:00 13.3 6 Oeste 11 Oeste 0 915.6 0.8 33
2019-10-16 20:00:00 14.3 5 Oeste 15 Oeste 0 915 0.2 29
2019-10-16 19:00:00 16.7 5 Oeste 17 Sudoeste 0 914.9 -0.3 24
2019-10-16 18:00:00 18.6 5 Oeste 15 Oeste 0 914.8 -0.9 21
2019-10-16 17:00:00 19.3 4 Oeste 19 Oeste 0 914.8 -1.8 20
2019-10-16 16:00:00 19.5 3 Noroeste 11 Oeste 0 915.2 -1.7 19
2019-10-16 15:00:00 20.1 5 Este 16 Este 0 915.7 -1.5 17
2019-10-16 14:00:00 19.4 5 Este 14 Este 0 916.6 -0.3 18
2019-10-16 13:00:00 17.5 7 Este 12 Este 0 916.9 0.4 21
2019-10-16 12:00:00 16.8 6 Este 12 Este 0 917.2 1.3 22
2019-10-16 11:00:00 16.3 2 Este 7 Este 0 916.9 1.3 21
2019-10-16 10:00:00 12.9 0 Calma 12 Oeste 0 916.5 0.6 28
2019-10-16 09:00:00 7.7 8 Oeste 12 Oeste 0 915.9 0.1 34
2019-10-16 08:00:00 6.9 5 Oeste 12 Oeste 0 915.6 -0.5 37
2019-10-16 07:00:00 5.7 6 Oeste 10 Oeste 0 915.9 -0.7 53
2019-10-16 06:00:00 6 5 Oeste 12 Oeste 0 915.8 -1.3 55
2019-10-16 05:00:00 6.3 6 Oeste 10 Oeste 0 916.1 -1.1 55
2019-10-16 04:00:00 6.2 7 Oeste 10 Oeste 0 916.6 -0.8 53
2019-10-16 03:00:00 6.2 6 Oeste 9 Oeste 0 917.1 -0.6 55
2019-10-16 02:00:00 6.3 6 Oeste 11 Oeste 0 917.2 -0.3 55
2019-10-16 01:00:00 6.6 8 Oeste 12 Oeste 0 917.4 0.1 53
2019-10-16 00:00:00 6.5 7 Oeste 12 Oeste 0 917.7 0.7 53
2019-10-15 23:00:00 7.1 6 Oeste 10 Noroeste 0 917.5 1 60
2019-10-15 22:00:00 7.4 6 Oeste 10 Oeste 0 917.3 0.9 58
2019-10-15 21:00:00 8.2 6 Oeste 10 Oeste 0 917 0.8 55
2019-10-15 20:00:00 9.3 4 Oeste 8 Oeste 0 916.5 0.4 50
2019-10-15 19:00:00 13.5 0 Calma 9 Este 0 916.4 0.1 32
2019-10-15 18:00:00 14.8 3 Este 14 Este 0 916.2 -0.4 27
2019-10-15 17:00:00 15.1 7 Este 13 Este 0 916.1 -1.1 27
2019-10-15 16:00:00 15.1 5 Este 15 Sudeste 0 916.3 -1.2 28
2019-10-15 15:00:00 15.2 3 Este 10 Este 0 916.6 -1.2 27
2019-10-15 14:00:00 14.9 5 Este 15 Este 0 917.2 -0.2 30
2019-10-15 13:00:00 14.7 7 Este 13 Nordeste 0 917.5 0.7 35
2019-10-15 12:00:00 13 6 Este 14 Este 0 917.8 1.6 43
2019-10-15 11:00:00 12.1 3 Nordeste 9 Este 0 917.4 1.3 44
2019-10-15 10:00:00 10.6 0 Calma 9 Oeste 0 916.8 0.8 63
2019-10-15 09:00:00 6.4 6 Oeste 10 Oeste 0 916.2 0.1 71
2019-10-15 08:00:00 6.1 5 Oeste 9 Oeste 0 916.1 -0.1 71
2019-10-15 07:00:00 7.3 6 Oeste 8 Oeste 0 916 -0.2 71
2019-10-15 06:00:00 8.7 3 Oeste 8 Noroeste 0 916.1 -0.3 66
2019-10-15 05:00:00 10.1 2 Oeste 13 Noroeste 0 916.2 -0.2 60
2019-10-15 04:00:00 10.3 4 Noroeste 17 Noroeste 0 916.2 0 60
2019-10-15 03:00:00 10.8 3 Oeste 18 Noroeste 0.1 916.4 0.1 61
2019-10-15 02:00:00 10.8 4 Oeste 20 Noroeste 0 916.4 0.6 63
2019-10-15 01:00:00 11.4 5 Oeste 18 Noroeste 0 916.2 1 64
2019-10-15 00:00:00 11.4 6 Oeste 26 Noroeste 0.3 916.3 1.3 65
2019-10-14 23:00:00 12.6 7 Oeste 22 Sudoeste 1.6 915.8 1.1 71
2019-10-14 22:00:00 12.6 6 Oeste 22 Sur 6 915.2 0.9 71
2019-10-14 21:00:00 11.9 8 Oeste 28 Sudoeste 1 915 1.2 67
2019-10-14 20:00:00 12.8 5 Sudoeste 25 Sudoeste 0 914.7 1.3 61
2019-10-14 19:00:00 12.9 8 Sudoeste 27 Sudoeste 0 914.3 0.8 60
2019-10-14 18:00:00 13.5 9 Oeste 29 Sudoeste 0 913.8 0.3 63
2019-10-14 17:00:00 14.2 8 Oeste 32 Noroeste 0.1 913.4 -0.6 65
2019-10-14 16:00:00 14.3 8 Oeste 29 Oeste 0.5 913.5 -0.4 69
2019-10-14 15:00:00 14.4 8 Sudoeste 24 Sudoeste 0.2 913.5 -0.2 70
2019-10-14 14:00:00 14.2 6 Oeste 23 Noroeste 0.4 914 0.6 69
2019-10-14 13:00:00 14 7 Oeste 23 Oeste 0.1 913.9 0.8 66
2019-10-14 12:00:00 13.8 8 Oeste 26 Sudoeste 0.9 913.7 1.4 69
2019-10-14 11:00:00 14.2 8 Oeste 29 Sudoeste 0.1 913.4 1.9 70
2019-10-14 10:00:00 13.3 6 Sudoeste 23 Sudoeste 1.3 913.1 1.4 72
2019-10-14 09:00:00 14.2 8 Oeste 25 Oeste 4.6 912.3 0.8 72
2019-10-14 08:00:00 14.8 9 Oeste 26 Oeste 0 911.5 0.7 66
2019-10-14 07:00:00 15.3 9 Oeste 29 Oeste 0 911.7 1.1 68
2019-10-14 06:00:00 15.9 6 Sudoeste 40 Oeste 0 911.5 0.4 66
2019-10-14 05:00:00 17.2 8 Sudoeste 23 Sur 0 910.8 -0.8 55
2019-10-14 04:00:00 19.8 6 Oeste 18 Sudoeste 0 910.6 -1.5 38
2019-10-14 03:00:00 21.2 2 Oeste 22 Este 0 911.1 -1.1 36
2019-10-14 02:00:00 21.2 3 Este 31 Sur 0 911.6 -0.3 36
2019-10-14 01:00:00 21.8 6 Este 31 Sur 0 912.1 0.2 33
2019-10-14 00:00:00 22.2 9 Sudeste 28 Sur 0 912.2 0.4 32
2019-10-13 23:00:00 22.4 9 Sudeste 26 Este 0 911.9 0.5 32
2019-10-13 22:00:00 22.4 8 Este 24 Sur 0 911.9 0.3 30
2019-10-13 21:00:00 22.9 9 Sudeste 28 Sudeste 0 911.8 -0.4 30
2019-10-13 20:00:00 23 10 Este 27 Este 0 911.4 -1 31
2019-10-13 19:00:00 23.6 6 Sudeste 21 Nordeste 0 911.6 -0.5 31
2019-10-13 18:00:00 25.1 3 Este 19 Sur 0 912.2 -0.4 31
2019-10-13 17:00:00 25.9 6 Sudeste 32 Este 0 912.4 -0.9 30
2019-10-13 16:00:00 26.6 6 Este 30 Este 0 912.1 -1.8 28
2019-10-13 15:00:00 27 6 Este 22 Sudeste 0 912.6 -1.2 26
2019-10-13 14:00:00 26.9 4 Noroeste 21 Oeste 0 913.3 -0.5 28
2019-10-13 13:00:00 25.6 7 Noroeste 17 Norte 0 913.9 0.5 28
2019-10-13 12:00:00 24.3 5 Noroeste 14 Oeste 0 913.8 0.8 29
2019-10-13 11:00:00 23.6 2 Este 14 Sur 0 913.8 1 33
2019-10-13 10:00:00 21.4 4 Oeste 12 Oeste 0 913.4 0.7 36
2019-10-13 09:00:00 15.3 6 Oeste 10 Oeste 0 913 0.4 46
2019-10-13 08:00:00 15.1 6 Oeste 10 Oeste 0 912.8 0 45
2019-10-13 07:00:00 16.3 6 Oeste 14 Oeste 0 912.7 -0.3 43
2019-10-13 06:00:00 16.5 6 Oeste 13 Sudoeste 0 912.6 -0.9 43
2019-10-13 05:00:00 17 6 Oeste 12 Sudoeste 0 912.8 -1 43
2019-10-13 04:00:00 16.2 7 Oeste 11 Oeste 0 913 -1.1 46
2019-10-13 03:00:00 15.6 6 Oeste 10 Oeste 0 913.5 -0.7 45
2019-10-13 02:00:00 16.1 6 Oeste 10 Oeste 0 913.8 -0.3 43
2019-10-13 01:00:00 17.1 5 Oeste 11 Noroeste 0 914.1 0.4 42
2019-10-13 00:00:00 16.9 6 Oeste 15 Sudoeste 0 914.2 0.7 44
2019-10-12 23:00:00 19.6 7 Oeste 17 Sudoeste 0 914.1 0.7 44
2019-10-12 22:00:00 19.7 8 Oeste 19 Oeste 0 913.7 0.7 44
2019-10-12 21:00:00 20.5 7 Oeste 17 Oeste 0 913.5 0.5 44
2019-10-12 20:00:00 20.8 7 Oeste 15 Oeste 0 913.4 0.5 50
2019-10-12 19:00:00 22.9 2 Oeste 14 Sudoeste 0 913 -0.1 45
2019-10-12 18:00:00 23.1 7 Oeste 17 Oeste 0 913 -0.3 43
2019-10-12 17:00:00 24.7 6 Oeste 17 Oeste 0 912.9 -1.1 38
2019-10-12 16:00:00 25.7 2 Nordeste 23 Este 0 913.1 -1 35
2019-10-12 15:00:00 26.9 5 Este 18 Este 0 913.3 -1 30
2019-10-12 14:00:00 26.2 5 Norte 15 Norte 0 914 -0.2 31
2019-10-12 13:00:00 27.3 4 Nordeste 12 Este 0 914.1 0.2 27
2019-10-12 12:00:00 26.9 3 Este 9 Este 0 914.3 0.8 25
2019-10-12 11:00:00 25.5 3 Este 8 Este 0 914.2 1.1 28
2019-10-12 10:00:00 21.1 3 Oeste 9 Oeste 0 913.9 0.7 35
2019-10-12 09:00:00 18.6 6 Oeste 11 Oeste 0 913.5 0 35
2019-10-12 08:00:00 18.6 5 Oeste 10 Oeste 0 913.1 -0.3 35
2019-10-12 07:00:00 18.1 6 Oeste 9 Oeste 0 913.2 -0.8 36
2019-10-12 06:00:00 19.1 5 Oeste 10 Noroeste 0 913.5 -1 36
2019-10-12 05:00:00 18.4 6 Oeste 10 Oeste 0 913.4 -1.8 36
2019-10-12 04:00:00 19.4 5 Oeste 10 Oeste 0 914 -1.3 36
2019-10-12 03:00:00 19.1 4 Oeste 11 Oeste 0 914.5 -1.2 36
2019-10-12 02:00:00 20 2 Oeste 10 Noroeste 0 915.2 -0.7 37
2019-10-12 01:00:00 19 5 Oeste 9 Noroeste 0 915.3 -0.1 39
2019-10-12 00:00:00 18.2 6 Oeste 10 Oeste 0 915.7 0.8 39
2019-10-11 23:00:00 19.6 4 Oeste 8 Oeste 0 915.9 1.1 38
2019-10-11 22:00:00 19.8 3 Oeste 10 Oeste 0 915.4 0.6 37
2019-10-11 21:00:00 19.4 5 Oeste 12 Oeste 0 914.9 -0.3 41
2019-10-11 20:00:00 20.6 6 Oeste 10 Oeste 0 914.8 -0.4 36
2019-10-11 19:00:00 23.5 0 Calma 8 Este 0 914.8 -0.7 35
2019-10-11 18:00:00 23.7 2 Nordeste 12 Este 0 915.2 -0.4 35
2019-10-11 17:00:00 24.4 5 Este 13 Norte 0 915.2 -1 34
2019-10-11 16:00:00 25 4 Este 13 Nordeste 0 915.5 -0.9 31
2019-10-11 15:00:00 26.2 6 Nordeste 22 Este 0 915.6 -1.1 28
2019-10-11 14:00:00 25.6 6 Este 18 Este 0 916.2 -0.5 28
2019-10-11 13:00:00 24.6 7 Este 23 Sudeste 0 916.4 0.3 26
2019-10-11 12:00:00 23.8 8 Este 28 Nordeste 0 916.7 1.3 26
2019-10-11 11:00:00 22.8 0 Calma 21 Sur 0 916.7 1.5 26
2019-10-11 10:00:00 21.7 6 Este 26 Sudoeste 0 916.1 1 26
2019-10-11 09:00:00 21 6 Este 22 Sudeste 0 915.4 0.4 25
2019-10-11 08:00:00 20.5 7 Este 32 Nordeste 0 915.2 0.2 25
2019-10-11 07:00:00 20.6 8 Este 31 Sudeste 0 915.1 -0.1 27
2019-10-11 06:00:00 20.5 8 Sudeste 28 Sur 0 915 -0.4 32
2019-10-11 05:00:00 20.3 10 Este 26 Nordeste 0 915 -0.8 36
2019-10-11 04:00:00 19.9 6 Sudeste 26 Este 0 915.2 -0.6 38
2019-10-11 03:00:00 20 13 Este 39 Este 0 915.4 -0.5 38
2019-10-11 02:00:00 19.9 5 Nordeste 23 Este 0 915.8 -0.2 39
2019-10-11 01:00:00 19.6 6 Este 30 Nordeste 0 915.8 -0.1 40
2019-10-11 00:00:00 20.3 12 Este 28 Este 0 915.9 0.6 40
2019-10-10 23:00:00 19.2 7 Este 18 Este 0 916 0.9 41
2019-10-10 22:00:00 19.2 4 Nordeste 17 Este 0 915.9 0.8 39
2019-10-10 21:00:00 20.2 2 Este 22 Este 0 915.3 0.3 38
2019-10-10 20:00:00 21.1 6 Nordeste 17 Este 0 915.1 0.1 38
2019-10-10 19:00:00 22 5 Este 24 Nordeste 0 915.1 -0.1 37
2019-10-10 18:00:00 23.1 11 Nordeste 26 Este 0 915 -0.4 35
2019-10-10 17:00:00 24.6 6 Nordeste 21 Este 0 915 -0.8 34
2019-10-10 16:00:00 24.6 8 Nordeste 21 Este 0 915.2 -0.7 34
2019-10-10 15:00:00 25.4 8 Este 20 Este 0 915.4 -0.7 34
2019-10-10 14:00:00 26.1 8 Nordeste 22 Este 0 915.8 -0.1 35
2019-10-10 13:00:00 24.8 8 Nordeste 27 Nordeste 0 915.9 0.4 34
2019-10-10 12:00:00 24.4 4 Nordeste 17 Norte 0 916.1 1.3 35
2019-10-10 11:00:00 23.2 4 Nordeste 15 Nordeste 0 915.9 1.5 39
2019-10-10 10:00:00 22.5 4 Nordeste 15 Norte 0 915.5 1.4 40
2019-10-10 09:00:00 21.6 5 Sur 19 Sudoeste 0 914.8 0.8 41
2019-10-10 08:00:00 20.8 2 Sudeste 13 Sudeste 0 914.4 0.3 43
2019-10-10 07:00:00 16.3 6 Oeste 12 Noroeste 0 914.1 -0.2 51
2019-10-10 06:00:00 17 8 Oeste 12 Oeste 0 914 -0.7 51
2019-10-10 05:00:00 17.1 7 Oeste 11 Oeste 0 914.1 -0.7 51
2019-10-10 04:00:00 17 4 Oeste 10 Oeste 0 914.3 -0.6 51
2019-10-10 03:00:00 17.3 5 Oeste 10 Oeste 0 914.7 -0.3 51
2019-10-10 02:00:00 17.4 7 Oeste 10 Oeste 0 914.8 -0.1 51
2019-10-10 01:00:00 17.7 5 Oeste 10 Oeste 0 914.9 0.2 50
2019-10-10 00:00:00 17.5 6 Oeste 12 Oeste 0 915 0.6 49
2019-10-09 23:00:00 17.8 6 Oeste 9 Oeste 0 914.9 0.8 46
2019-10-09 22:00:00 18.5 4 Oeste 10 Noroeste 0 914.7 0.8 43
2019-10-09 21:00:00 20.1 5 Oeste 9 Oeste 0 914.4 0.5 40
2019-10-09 20:00:00 22.4 4 Oeste 10 Oeste 0 914.1 0.1 35
2019-10-09 19:00:00 24.8 4 Oeste 14 Oeste 0 913.9 -0.1 32
2019-10-09 18:00:00 26.2 4 Oeste 13 Sudoeste 0 913.9 -0.2 30
2019-10-09 17:00:00 26.7 5 Oeste 15 Noroeste 0 914 -0.6 30
2019-10-09 16:00:00 28.1 0 Calma 10 Este 0 914 -0.9 30
2019-10-09 15:00:00 27.3 5 Este 14 Este 0 914.1 -0.8 31
2019-10-09 14:00:00 26.7 8 Este 15 Este 0 914.6 -0.3 31
2019-10-09 13:00:00 25.9 10 Este 15 Sudeste 0 914.9 0.2 32
2019-10-09 12:00:00 26.4 3 Este 13 Nordeste 0 914.9 0.8 33
2019-10-09 11:00:00 25.8 4 Este 8 Este 0 914.9 1 31
2019-10-09 10:00:00 22.1 0 Calma 9 Oeste 0 914.7 0.9 41
2019-10-09 09:00:00 16.8 7 Oeste 10 Noroeste 0 914.1 0.3 51
2019-10-09 08:00:00 15.3 6 Oeste 10 Oeste 0 913.9 0.2 53
2019-10-09 07:00:00 15.3 7 Oeste 11 Oeste 0 913.8 -0.3 52
2019-10-09 06:00:00 15.7 8 Oeste 10 Oeste 0 913.8 -0.8 51
2019-10-09 05:00:00 15.7 8 Oeste 10 Oeste 0 913.7 -1.1 51
2019-10-09 04:00:00 15.9 5 Oeste 10 Oeste 0 914.1 -1.1 51
2019-10-09 03:00:00 16.2 7 Oeste 10 Oeste 0 914.6 -1 50
2019-10-09 02:00:00 16.3 6 Oeste 10 Oeste 0 914.8 -0.7 50
2019-10-09 01:00:00 16.3 6 Oeste 10 Oeste 0 915.2 0.1 49
2019-10-09 00:00:00 16.4 6 Oeste 10 Oeste 0 915.6 0.6 49
2019-10-08 23:00:00 16.8 6 Oeste 9 Oeste 0 915.5 0.9 48
2019-10-08 22:00:00 17.8 6 Oeste 10 Oeste 0 915.1 0.6 44
2019-10-08 21:00:00 17.8 7 Oeste 10 Oeste 0 915 0.5 42
2019-10-08 20:00:00 19.9 5 Oeste 9 Oeste 0 914.6 0 39
2019-10-08 19:00:00 24.1 0 Calma 12 Este 0 914.5 -0.6 30
2019-10-08 18:00:00 26.1 3 Este 14 Este 0 914.5 -0.8 28
2019-10-08 17:00:00 26.3 8 Este 19 Este 0 914.6 -1.3 28
2019-10-08 16:00:00 26.8 8 Este 21 Este 0 915.1 -1 29
2019-10-08 15:00:00 26.6 7 Este 21 Este 0 915.3 -1 31
2019-10-08 14:00:00 26.3 6 Nordeste 19 Este 0 915.9 0 30
2019-10-08 13:00:00 26.9 8 Nordeste 19 Este 0 916.1 0.5 27
2019-10-08 12:00:00 26.7 4 Nordeste 13 Nordeste 0 916.3 1.1 27
2019-10-08 11:00:00 26.2 3 Este 7 Este 0 915.9 1 29
2019-10-08 10:00:00 23.6 0 Calma 8 Oeste 0 915.6 0.8 35
2019-10-08 09:00:00 18.4 4 Oeste 11 Noroeste 0 915.2 0.4 40
2019-10-08 08:00:00 17.3 8 Oeste 11 Noroeste 0 914.9 0 40
2019-10-08 07:00:00 16.7 6 Oeste 11 Oeste 0 914.8 -0.5 39
2019-10-08 06:00:00 17 6 Oeste 10 Oeste 0 914.8 -0.8 38
2019-10-08 05:00:00 16.9 6 Oeste 12 Oeste 0 914.9 -0.8 37
2019-10-08 04:00:00 17.2 7 Oeste 13 Oeste 0 915.3 -0.5 36
2019-10-08 03:00:00 17.2 7 Oeste 13 Oeste 0 915.6 -0.3 35
2019-10-08 02:00:00 17.8 9 Oeste 11 Oeste 0 915.7 -0.5 34
2019-10-08 01:00:00 18.5 6 Oeste 9 Oeste 0 915.8 0.1 33
2019-10-08 00:00:00 18.9 6 Oeste 12 Oeste 0 915.9 0.5 33
2019-10-07 23:00:00 18.4 8 Oeste 12 Oeste 0 916.2 1 34
2019-10-07 22:00:00 18.6 8 Oeste 12 Oeste 0 915.7 0.6 33
2019-10-07 21:00:00 19.3 8 Oeste 10 Oeste 0 915.4 0.5 32
2019-10-07 20:00:00 21.5 5 Oeste 9 Oeste 0 915.2 0.2 27
2019-10-07 19:00:00 26 0 Calma 13 Noroeste 0 915.1 -0.1 22
2019-10-07 18:00:00 27.7 0 Calma 13 Nordeste 0 914.9 -0.6 21
2019-10-07 17:00:00 28 4 Este 13 Este 0 915 -1 20
2019-10-07 16:00:00 28.2 5 Este 15 Nordeste 0 915.2 -1 20
2019-10-07 15:00:00 27.7 8 Este 23 Este 0 915.5 -0.7 20
2019-10-07 14:00:00 27.4 6 Este 20 Este 0 916 -0.2 20
2019-10-07 13:00:00 26.7 8 Este 20 Este 0 916.2 0.4 21
2019-10-07 12:00:00 26.1 4 Este 12 Este 0 916.2 0.7 24
2019-10-07 11:00:00 24.5 6 Este 9 Este 0 916.2 0.9 27
2019-10-07 10:00:00 21.3 0 Calma 8 Oeste 0 915.8 0.8 34
2019-10-07 09:00:00 15.4 5 Oeste 9 Oeste 0 915.5 0.4 42
2019-10-07 08:00:00 14.4 6 Oeste 10 Oeste 0 915.3 -0.1 43
2019-10-07 07:00:00 14.6 5 Oeste 10 Oeste 0 915 -0.7 43
2019-10-07 06:00:00 14.6 7 Oeste 10 Noroeste 0 915.1 -1.3 42
2019-10-07 05:00:00 15.1 6 Oeste 11 Noroeste 0 915.4 -1.2 42
2019-10-07 04:00:00 15.3 7 Oeste 11 Oeste 0 915.7 -1.4 40
2019-10-07 03:00:00 15.6 8 Oeste 11 Oeste 0 916.4 -0.7 39
2019-10-07 02:00:00 16.5 8 Oeste 11 Oeste 0 916.6 -0.4 36
2019-10-07 01:00:00 16 7 Oeste 11 Oeste 0 917.1 0.3 35
2019-10-07 00:00:00 16.5 7 Oeste 10 Oeste 0 917.1 0.5 35
2019-10-06 23:00:00 17.2 6 Oeste 12 Noroeste 0 917 0.8 33
2019-10-06 22:00:00 16.5 7 Oeste 12 Oeste 0 916.8 0.7 38
2019-10-06 21:00:00 17.6 5 Oeste 9 Oeste 0 916.6 0.5 38
2019-10-06 20:00:00 20.4 4 Oeste 14 Noroeste 0 916.2 -0.1 32
2019-10-06 19:00:00 23.8 4 Oeste 16 Noroeste 0 916.1 -0.5 28
2019-10-06 18:00:00 25.9 0 Calma 14 Nordeste 0 916.1 -0.5 28
2019-10-06 17:00:00 26 8 Este 16 Nordeste 0 916.3 -0.8 28
2019-10-06 16:00:00 26.6 7 Este 18 Este 0 916.6 -0.6 27
2019-10-06 15:00:00 26.5 7 Este 20 Este 0 916.6 -0.5 29
2019-10-06 14:00:00 25.5 8 Este 21 Este 0 917.1 0.4 31
2019-10-06 13:00:00 24.7 8 Este 20 Este 0 917.2 0.9 33
2019-10-06 12:00:00 24.6 6 Este 13 Este 0 917.1 1.4 35
2019-10-06 11:00:00 22.8 5 Este 10 Este 0 916.7 1.3 40
2019-10-06 10:00:00 20.9 0 Calma 9 Oeste 0 916.3 1.2 45
2019-10-06 09:00:00 14.9 7 Oeste 10 Oeste 0 915.7 0.6 56
2019-10-06 08:00:00 13 7 Oeste 10 Oeste 0 915.4 0.3 57
2019-10-06 07:00:00 13.4 7 Oeste 11 Oeste 0 915.1 -0.1 56
2019-10-06 06:00:00 13.5 5 Oeste 12 Noroeste 0 915.1 -0.6 53
2019-10-06 05:00:00 13.9 6 Oeste 10 Oeste 0 915.1 -0.4 51
2019-10-06 04:00:00 13.9 6 Oeste 10 Oeste 0 915.2 -0.2 48
2019-10-06 03:00:00 14.1 7 Oeste 10 Oeste 0 915.7 0.2 43
2019-10-06 02:00:00 14.6 7 Oeste 11 Noroeste 0 915.5 0 43
2019-10-06 01:00:00 15.2 5 Oeste 10 Oeste 0 915.4 0.3 43
2019-10-06 00:00:00 15.5 8 Oeste 15 Oeste 0 915.5 0.9 42
2019-10-05 23:00:00 14.6 8 Oeste 12 Oeste 0 915.5 0.9 39
2019-10-05 22:00:00 14.6 6 Oeste 11 Oeste 0 915.1 1 45
2019-10-05 21:00:00 16 5 Oeste 9 Oeste 0 914.6 0.5 49
2019-10-05 20:00:00 19.7 5 Oeste 12 Oeste 0 914.6 0.5 46
2019-10-05 19:00:00 21.3 5 Oeste 13 Noroeste 0 914.1 -0.1 42
2019-10-05 18:00:00 22.3 4 Oeste 12 Noroeste 0 914.1 -0.1 42
2019-10-05 17:00:00 22.9 3 Oeste 14 Oeste 0 914.1 -0.4 40
2019-10-05 16:00:00 23.4 4 Oeste 14 Oeste 0 914.2 -0.5 38
2019-10-05 15:00:00 24.9 4 Nordeste 15 Este 0 914.2 -0.4 34
2019-10-05 14:00:00 24.3 5 Este 13 Este 0 914.5 0.2 37
2019-10-05 13:00:00 22.6 6 Este 13 Este 0 914.7 1 40
2019-10-05 12:00:00 22 5 Este 10 Este 0 914.6 1.3 42
2019-10-05 11:00:00 20.6 3 Este 8 Nordeste 0 914.3 1.3 45
2019-10-05 10:00:00 18.8 0 Calma 9 Oeste 0 913.7 0.8 48
2019-10-05 09:00:00 13.7 7 Oeste 10 Oeste 0 913.3 0.3 46
2019-10-05 08:00:00 12.3 8 Oeste 12 Oeste 0 913 -0.1 45
2019-10-05 07:00:00 13 7 Oeste 11 Oeste 0 912.9 -0.6 43
2019-10-05 06:00:00 13.2 7 Oeste 10 Oeste 0 913 -0.8 41
2019-10-05 05:00:00 14 3 Oeste 12 Oeste 0 913.1 -1 38
2019-10-05 04:00:00 13.6 9 Oeste 11 Oeste 0 913.5 -1 50
2019-10-05 03:00:00 13.7 7 Oeste 12 Oeste 0 913.8 -0.7 56
2019-10-05 02:00:00 14.2 6 Oeste 10 Oeste 0 914.1 -0.5 56
2019-10-05 01:00:00 15.1 0 Calma 5 Noroeste 0 914.5 -0.2 53
2019-10-05 00:00:00 16.3 0 Calma 9 Oeste 0 914.5 0 50
2019-10-04 23:00:00 15.7 6 Oeste 10 Oeste 0 914.6 0.3 52
2019-10-04 22:00:00 16.3 6 Oeste 11 Noroeste 0 914.7 0.6 52
2019-10-04 21:00:00 18.9 5 Oeste 13 Oeste 0 914.5 0.2 46
2019-10-04 20:00:00 20.6 7 Oeste 15 Oeste 0 914.3 0 41
2019-10-04 19:00:00 22.8 6 Oeste 15 Oeste 0 914.1 -0.5 35
2019-10-04 18:00:00 24.7 6 Sudoeste 17 Sudoeste 0 914.3 -0.8 31
2019-10-04 17:00:00 25.1 5 Oeste 18 Noroeste 0 914.3 -1.4 30
2019-10-04 16:00:00 26.7 5 Oeste 18 Sudoeste 0 914.6 -1.2 26
2019-10-04 15:00:00 26.8 4 Oeste 13 Sudoeste 0 915.1 -0.8 26
2019-10-04 14:00:00 26.6 3 Este 14 Este 0 915.7 -0.2 25
2019-10-04 13:00:00 25.7 6 Este 15 Este 0 915.8 0 27
2019-10-04 12:00:00 24.8 5 Este 12 Este 0 915.9 0.5 28
2019-10-04 11:00:00 23.9 4 Este 8 Este 0 915.9 0.7 29
2019-10-04 10:00:00 21.4 2 Este 9 Oeste 0 915.8 0.7 32
2019-10-04 09:00:00 15.6 6 Oeste 12 Oeste 0 915.4 0 40
2019-10-04 08:00:00 13.7 7 Oeste 12 Oeste 0 915.2 -0.2 40
2019-10-04 07:00:00 13.3 7 Oeste 11 Oeste 0 915.1 -0.4 41
2019-10-04 06:00:00 13.5 6 Oeste 11 Oeste 0 915.4 -0.7 41
2019-10-04 05:00:00 13.8 6 Oeste 10 Oeste 0 915.4 -0.8 39
2019-10-04 04:00:00 16.4 7 Oeste 10 Oeste 0 915.5 -1 39
2019-10-04 03:00:00 15.9 6 Oeste 10 Oeste 0 916.1 -0.6 39
2019-10-04 02:00:00 15.5 5 Oeste 12 Oeste 0 916.2 -0.4 39
2019-10-04 01:00:00 16.6 7 Oeste 12 Oeste 0 916.5 0 35
2019-10-04 00:00:00 19.7 4 Sudoeste 18 Noroeste 0 916.7 0.4 32
2019-10-03 23:00:00 20 7 Sudoeste 21 Noroeste 0 916.6 0.5 34
2019-10-03 22:00:00 20.2 6 Oeste 19 Noroeste 0 916.5 0.4 33
2019-10-03 21:00:00 17.9 0 Calma 9 Noroeste 0 916.3 0.2 38
2019-10-03 20:00:00 17.9 4 Oeste 13 Oeste 0 916.1 0 40
2019-10-03 19:00:00 19.7 6 Oeste 22 Sudoeste 0 916.1 -0.4 37
2019-10-03 18:00:00 21.7 6 Oeste 18 Oeste 0 916.1 -0.4 31
2019-10-03 17:00:00 23.2 5 Oeste 17 Sudoeste 0 916.1 -1 31
2019-10-03 16:00:00 23.4 5 Oeste 22 Sudoeste 0 916.5 -0.8 31
2019-10-03 15:00:00 23.9 4 Oeste 17 Oeste 0 916.5 -0.9 31
2019-10-03 14:00:00 23.6 5 Oeste 17 Noroeste 0 917.1 -0.2 31
2019-10-03 13:00:00 22.5 6 Este 13 Sudeste 0 917.3 0.8 34
2019-10-03 12:00:00 21.1 4 Este 11 Este 0 917.4 1.4 34
2019-10-03 11:00:00 20.2 3 Este 9 Nordeste 0 917.3 1.7 34
2019-10-03 10:00:00 18.9 0 Calma 12 Noroeste 0 916.5 0.9 36
2019-10-03 09:00:00 13.8 7 Oeste 13 Oeste 0 916 0.4 40
2019-10-03 08:00:00 12.7 7 Oeste 13 Oeste 0 915.6 0.1 40
2019-10-03 07:00:00 12.7 6 Oeste 12 Oeste 0 915.6 0 41
2019-10-03 06:00:00 12.5 7 Oeste 11 Oeste 0 915.6 -0.2 41
2019-10-03 05:00:00 13.1 6 Oeste 12 Noroeste 0 915.5 -0.4 41
2019-10-03 04:00:00 14 7 Oeste 10 Noroeste 0 915.6 -0.7 39
2019-10-03 03:00:00 15.4 6 Oeste 12 Oeste 0 915.8 -0.6 38
2019-10-03 02:00:00 14.8 8 Noroeste 14 Oeste 0 915.9 -0.2 39
2019-10-03 01:00:00 16.4 5 Oeste 15 Noroeste 0 916.3 0.7 38
2019-10-03 00:00:00 16.8 5 Oeste 16 Oeste 0 916.4 1 38
2019-10-02 23:00:00 16.9 6 Oeste 15 Noroeste 0 916.1 0.8 39
2019-10-02 22:00:00 16.9 5 Oeste 14 Noroeste 0 915.6 0.6 42
2019-10-02 21:00:00 17.6 0 Calma 17 Oeste 0 915.4 0.6 42
2019-10-02 20:00:00 17.5 5 Oeste 16 Oeste 0 915.3 0.4 40
2019-10-02 19:00:00 19.6 6 Oeste 18 Sudoeste 0 915 -0.3 34
2019-10-02 18:00:00 21.2 7 Oeste 22 Sudoeste 0 914.8 -0.5 30
2019-10-02 17:00:00 21.3 9 Oeste 22 Noroeste 0 914.9 -0.6 28
2019-10-02 16:00:00 22.1 8 Oeste 23 Sudoeste 0 915.3 -0.2 30
2019-10-02 15:00:00 22.8 7 Sudoeste 21 Oeste 0 915.3 -0.2 31
2019-10-02 14:00:00 22.3 5 Sudoeste 19 Sudoeste 0 915.5 0.2 35
2019-10-02 13:00:00 21.9 5 Este 13 Este 0 915.5 0.5 34
2019-10-02 12:00:00 22.1 5 Este 13 Este 0 915.5 1 31
2019-10-02 11:00:00 21.7 2 Nordeste 22 Noroeste 0 915.3 0.8 28
2019-10-02 10:00:00 21.2 3 Noroeste 21 Noroeste 0 915 0.5 19
2019-10-02 09:00:00 18.8 6 Oeste 15 Noroeste 0 914.5 0.2 26
2019-10-02 08:00:00 12.7 4 Oeste 9 Noroeste 0 914.5 0 55
2019-10-02 07:00:00 14.8 0 Calma 11 Noroeste 0 914.5 -0.3 51
2019-10-02 06:00:00 15.5 0 Calma 13 Noroeste 0 914.3 -0.9 48
2019-10-02 05:00:00 16.1 0 Calma 17 Noroeste 0 914.5 -0.7 47
2019-10-02 04:00:00 16.9 5 Noroeste 24 Sudoeste 0 914.8 -0.6 46
2019-10-02 03:00:00 17.5 2 Oeste 21 Noroeste 0 915.2 -0.4 46
2019-10-02 02:00:00 18.2 7 Noroeste 27 Noroeste 0 915.2 -0.2 44
2019-10-02 01:00:00 18.5 10 Noroeste 26 Noroeste 0 915.4 0.6 44
2019-10-02 00:00:00 18.7 4 Noroeste 23 Noroeste 0 915.6 1.2 43
2019-10-01 23:00:00 19.2 4 Oeste 28 Noroeste 0 915.4 1.1 43
2019-10-01 22:00:00 19.8 9 Oeste 25 Sudoeste 0 914.8 0.7 43
2019-10-01 21:00:00 19.3 8 Oeste 19 Sudoeste 0 914.4 0.7 46
2019-10-01 20:00:00 20.2 6 Oeste 20 Sudoeste 0 914.3 0.5 43
2019-10-01 19:00:00 21.6 7 Oeste 23 Oeste 0 914.1 0.1 36
2019-10-01 18:00:00 23.8 7 Oeste 18 Noroeste 0 913.7 -0.5 25
2019-10-01 17:00:00 24.7 5 Sudoeste 21 Oeste 0 913.8 -0.6 21
2019-10-01 16:00:00 24.1 9 Oeste 21 Sudoeste 0 914 -0.5 23
2019-10-01 15:00:00 24.7 6 Oeste 21 Oeste 0 914.2 -0.3 20
2019-10-01 14:00:00 25 7 Oeste 25 Sudoeste 0 914.4 0.2 19
2019-10-01 13:00:00 25 5 Sudoeste -- -- -- 914.5 0.9 19
2019-10-01 12:00:00 24 8 Oeste 18 Oeste 0 914.5 1.1 19
2019-10-01 11:00:00 23.3 7 Oeste 17 Oeste 0 914.2 1.2 20
2019-10-01 10:00:00 21.8 4 Oeste 13 Sudoeste 0 913.6 0.9 23
2019-10-01 09:00:00 18.1 5 Oeste 15 Oeste 0 913.4 0.6 32
2019-10-01 08:00:00 19 6 Oeste 13 Oeste 0 913 -0.1 30
2019-10-01 07:00:00 18.5 6 Oeste 12 Oeste 0 912.7 -1 30
2019-10-01 06:00:00 17.2 6 Oeste 13 Sudoeste 0 912.8 -1.4 32
2019-10-01 05:00:00 16.9 6 Oeste 12 Sudoeste 0 913.1 -1.2 34
2019-10-01 04:00:00 17.2 6 Oeste 10 Oeste 0 913.7 -0.5 34
2019-10-01 03:00:00 17.3 7 Oeste 10 Oeste 0 914.2 -0.1 30
2019-10-01 02:00:00 18.1 7 Oeste 12 Oeste 0 914.3 -0.2 25
2019-10-01 01:00:00 18.6 9 Oeste 11 Oeste 0 914.2 -0.3 24
2019-10-01 00:00:00 18.7 9 Oeste 12 Noroeste 0 914.3 0.1 25
2019-09-30 23:00:00 18.2 4 Oeste 11 Oeste 0 914.5 0.2 25
2019-09-30 22:00:00 18.8 7 Oeste 12 Oeste 0 914.5 0 28
2019-09-30 21:00:00 20 5 Oeste 13 Oeste 0 914.2 -0.4 30
2019-09-30 20:00:00 22.8 6 Oeste 11 Oeste 0 914.3 -0.4 27
2019-09-30 19:00:00 26.3 3 Oeste 10 Sudoeste 0 914.5 -0.5 22
2019-09-30 18:00:00 26.7 4 Oeste 15 Sudoeste 0 914.6 -0.4 24
2019-09-30 17:00:00 28.8 4 Oeste 17 Sudoeste 0 914.7 -1.1 21
2019-09-30 16:00:00 28.9 6 Oeste 19 Oeste 0 915 -1 22
2019-09-30 15:00:00 28.5 8 Este 17 Este 0 915 -1.1 21
2019-09-30 14:00:00 27 7 Este 15 Este 0 915.8 0 23
2019-09-30 13:00:00 26.5 6 Este 14 Este 0 916 0.4 26
2019-09-30 12:00:00 24.9 4 Este 12 Este 0 916.1 0.9 31
2019-09-30 11:00:00 23.6 5 Este 9 Este 0 915.8 0.8 33
2019-09-30 10:00:00 21.5 0 Calma 8 Oeste 0 915.6 0.8 36
2019-09-30 09:00:00 15.2 6 Oeste 9 Noroeste 0 915.2 0.3 41
2019-09-30 08:00:00 13.5 4 Oeste 10 Oeste 0 915 0.1 42
2019-09-30 07:00:00 14 5 Oeste 12 Oeste 0 914.8 -0.5 40
2019-09-30 06:00:00 14.7 7 Oeste 12 Oeste 0 914.9 -0.9 40
2019-09-30 05:00:00 15.1 7 Oeste 12 Oeste 0 914.9 -1.2 41
2019-09-30 04:00:00 16 7 Oeste 13 Oeste 0 915.3 -0.9 46
2019-09-30 03:00:00 16.3 8 Oeste 11 Oeste 0 915.8 -0.4 46
2019-09-30 02:00:00 16.5 7 Oeste 10 Noroeste 0 916.1 -0.1 49
2019-09-30 01:00:00 16.5 5 Oeste 11 Oeste 0 916.2 0 49
2019-09-30 00:00:00 16.7 6 Oeste 13 Noroeste 0 916.2 0.6 53
2019-09-29 23:00:00 16.8 8 Oeste 12 Oeste 0 916.2 0.7 49
2019-09-29 22:00:00 17.1 6 Oeste 10 Oeste 0 916.2 0.7 52
2019-09-29 21:00:00 19.5 5 Oeste 14 Sudoeste 0 915.6 -0.2 52
2019-09-29 20:00:00 22.9 6 Oeste 14 Sudoeste 0 915.5 -0.5 38
2019-09-29 19:00:00 25 5 Oeste 14 Noroeste 0 915.5 -0.8 31
2019-09-29 18:00:00 26.9 5 Sudoeste 17 Noroeste 0 915.8 -0.8 27
2019-09-29 17:00:00 27.2 5 Oeste 19 Noroeste 0 916 -1.2 26
2019-09-29 16:00:00 27.7 5 Oeste 16 Noroeste 0 916.3 -0.8 25
2019-09-29 15:00:00 28.3 5 Sudoeste 17 Noroeste 0 916.6 -0.6 27
2019-09-29 14:00:00 27 7 Oeste 17 Oeste 0 917.2 0.3 26
2019-09-29 13:00:00 27.5 0 Calma 14 Este 0 917.1 0.7 27
2019-09-29 12:00:00 25.7 6 Este 11 Este 0 917.2 1.3 28
2019-09-29 11:00:00 24.4 5 Este 10 Este 0 916.9 1.5 28
2019-09-29 10:00:00 23 3 Este 8 Oeste 0 916.4 1 29
2019-09-29 09:00:00 18.7 6 Oeste 11 Oeste 0 915.9 0.6 33
2019-09-29 08:00:00 17.6 9 Oeste 11 Oeste 0 915.4 -0.2 32
2019-09-29 07:00:00 18.1 6 Oeste 11 Oeste 0 915.4 -0.8 30
2019-09-29 06:00:00 18.1 8 Oeste 14 Noroeste 0 915.3 -1.1 30
2019-09-29 05:00:00 18.1 8 Oeste 13 Noroeste 0 915.6 -0.6 29
2019-09-29 04:00:00 17.4 8 Oeste 12 Oeste 0 916.2 -0.4 28
2019-09-29 03:00:00 19.3 8 Oeste 11 Noroeste 0 916.4 -0.5 26
2019-09-29 02:00:00 19 8 Oeste 12 Oeste 0 916.2 -0.8 27
2019-09-29 01:00:00 18.8 9 Oeste 13 Noroeste 0 916.6 -0.1 28
2019-09-29 00:00:00 17.5 6 Oeste 11 Oeste 0 916.9 0.6 30
2019-09-28 23:00:00 17.7 6 Oeste 11 Oeste 0 917 0.8 30
2019-09-28 22:00:00 18.6 6 Oeste 14 Oeste 0 916.7 0.3 33
2019-09-28 21:00:00 20 7 Oeste 12 Noroeste 0 916.3 0.1 33
2019-09-28 20:00:00 23.7 6 Oeste 13 Oeste 0 916.2 -0.1 28
2019-09-28 19:00:00 26.3 5 Oeste 12 Oeste 0 916.4 -0.1 24
2019-09-28 18:00:00 27.5 6 Oeste 13 Oeste 0 916.2 -0.7 21
2019-09-28 17:00:00 29 3 Sudoeste 17 Noroeste 0 916.3 -1.3 20
2019-09-28 16:00:00 29.5 3 Sudoeste 22 Sudoeste 0 916.5 -1.1 19
2019-09-28 15:00:00 29.6 2 Sur 14 Sur 0 916.9 -0.6 18
2019-09-28 14:00:00 28.8 4 Oeste 17 Sudoeste 0 917.6 0 18
2019-09-28 13:00:00 28.2 7 Oeste 16 Noroeste 0 917.6 0.6 17
2019-09-28 12:00:00 26.6 4 Este 10 Este 0 917.5 0.9 24
2019-09-28 11:00:00 24.7 4 Este 8 Este 0 917.6 1.5 27
2019-09-28 10:00:00 22.3 0 Calma 8 Oeste 0 917 1.3 30
2019-09-28 09:00:00 16.7 5 Oeste 13 Noroeste 0 916.6 0.9 30
2019-09-28 08:00:00 17.2 9 Oeste 12 Oeste 0 916.1 0.2 29
2019-09-28 07:00:00 16.3 9 Oeste 13 Noroeste 0 915.7 -0.4 34
2019-09-28 06:00:00 15.3 8 Oeste 12 Noroeste 0 915.7 -0.8 46
2019-09-28 05:00:00 15.4 5 Oeste 10 Oeste 0 915.9 -1 49
2019-09-28 04:00:00 15.7 7 Oeste 12 Oeste 0 916.1 -1.3 48
2019-09-28 03:00:00 16.2 6 Oeste 12 Oeste 0 916.5 -0.8 44
2019-09-28 02:00:00 16.1 8 Oeste 12 Noroeste 0 916.9 -0.3 39
2019-09-28 01:00:00 16.3 6 Oeste 11 Noroeste 0 917.4 0.4 33
2019-09-28 00:00:00 16.1 5 Oeste 9 Oeste 0 917.3 0.9 36
2019-09-27 23:00:00 16.4 6 Oeste 11 Oeste 0 917.2 1.1 43
2019-09-27 22:00:00 17.3 4 Oeste 12 Noroeste 0 917 1 46
2019-09-27 21:00:00 19.5 6 Oeste 10 Noroeste 0 916.4 0.3 43
2019-09-27 20:00:00 21.7 4 Oeste 9 Sudoeste 0 916.1 -0.2 31
2019-09-27 19:00:00 25 3 Oeste 13 Oeste 0 916 -0.3 26
2019-09-27 18:00:00 26.4 2 Oeste 13 Oeste 0 916.1 -0.7 24
2019-09-27 17:00:00 26.9 5 Oeste 21 Noroeste 0 916.3 -0.8 24
2019-09-27 16:00:00 27.6 5 Oeste 22 Sudoeste 0 916.3 -0.9 25
2019-09-27 15:00:00 28.1 4 Noroeste 15 Noroeste 0 916.8 -0.4 25
2019-09-27 14:00:00 27.8 3 Oeste 15 Oeste 0 917.1 0 26
2019-09-27 13:00:00 26.5 0 Calma 12 Este 0 917.2 0.2 27
2019-09-27 12:00:00 25.3 4 Este 10 Este 0 917.2 0.4 31
2019-09-27 11:00:00 23.3 5 Este 9 Este 0 917.1 0.7 34
2019-09-27 10:00:00 21.2 0 Calma 9 Oeste 0 917 0.7 40
2019-09-27 09:00:00 15.6 6 Oeste 10 Oeste 0 916.8 0.5 51
2019-09-27 08:00:00 14 7 Oeste 10 Oeste 0 916.4 0.2 51
2019-09-27 07:00:00 14.7 7 Oeste 11 Oeste 0 916.3 -0.2 50
2019-09-27 06:00:00 14.9 4 Oeste 10 Noroeste 0 916.3 -0.4 50
2019-09-27 05:00:00 15.4 7 Oeste 12 Oeste 0 916.2 -0.7 50
2019-09-27 04:00:00 15.9 8 Oeste 12 Noroeste 0 916.5 -0.7 49
2019-09-27 03:00:00 15.6 7 Oeste 11 Oeste 0 916.7 -0.6 49
2019-09-27 02:00:00 16 5 Oeste 10 Oeste 0 916.9 -0.4 50
2019-09-27 01:00:00 15.9 7 Oeste 10 Oeste 0 917.2 0.4 51
2019-09-27 00:00:00 16 6 Oeste 9 Noroeste 0 917.3 1.1 50
2019-09-26 23:00:00 16.4 6 Oeste 11 Noroeste 0 917.3 1.3 46
2019-09-26 22:00:00 17.9 7 Oeste 12 Oeste 0 916.8 0.9 40
2019-09-26 21:00:00 19.9 6 Oeste 10 Noroeste 0 916.2 0.3 37
2019-09-26 20:00:00 22.8 5 Oeste 15 Noroeste 0 916 0.1 32
2019-09-26 19:00:00 24.7 4 Oeste 15 Oeste 0 915.9 -0.3 28
2019-09-26 18:00:00 26.3 4 Oeste 16 Oeste 0 915.9 -0.4 25
2019-09-26 17:00:00 26.9 6 Oeste 18 Noroeste 0 915.9 -0.8 23
2019-09-26 16:00:00 27.7 6 Oeste 17 Noroeste 0 916.2 -0.8 21
2019-09-26 15:00:00 28.1 4 Oeste 19 Oeste 0 916.3 -0.6 21
2019-09-26 14:00:00 27.4 5 Sudoeste 14 Sudoeste 0 916.7 0 21
2019-09-26 13:00:00 26.7 4 Nordeste 16 Este 0 917 0.8 22
2019-09-26 12:00:00 25.6 2 Sur 9 Nordeste 0 916.9 1.2 22
2019-09-26 11:00:00 24.2 5 Este 8 Este 0 916.7 1.4 24
2019-09-26 10:00:00 21.4 2 Este 8 Oeste 0 916.2 1.3 31
2019-09-26 09:00:00 15.8 6 Oeste 10 Noroeste 0 915.7 0.8 41
2019-09-26 08:00:00 13.5 5 Oeste 14 Oeste 0 915.3 0.4 43
2019-09-26 07:00:00 13.6 6 Oeste 12 Oeste 0 914.9 0 43
2019-09-26 06:00:00 13.1 8 Oeste 11 Oeste 0 914.9 -0.2 45
2019-09-26 05:00:00 13.5 5 Oeste 10 Oeste 0 914.9 -0.5 47
2019-09-26 04:00:00 13.5 6 Oeste 10 Oeste 0 914.9 -0.6 48
2019-09-26 03:00:00 13.6 6 Oeste 10 Oeste 0 915.1 -0.6 47
2019-09-26 02:00:00 13.9 6 Oeste 12 Oeste 0 915.4 -0.2 46
2019-09-26 01:00:00 14.4 8 Oeste 12 Oeste 0 915.5 0.1 44
2019-09-26 00:00:00 14.5 8 Oeste 11 Oeste 0 915.7 0.8 43
2019-09-25 23:00:00 15.1 8 Oeste 12 Oeste 0 915.6 0.9 41
2019-09-25 22:00:00 16.7 5 Oeste 11 Sudoeste 0 915.4 0.6 38
2019-09-25 21:00:00 17.2 5 Oeste 12 Oeste 0 914.9 0.2 35
2019-09-25 20:00:00 20.8 3 Oeste 15 Noroeste 0 914.7 -0.1 29
2019-09-25 19:00:00 22.9 4 Oeste 14 Oeste 0 914.8 -0.1 27
2019-09-25 18:00:00 24 5 Oeste 15 Sudoeste 0 914.7 -0.6 25
2019-09-25 17:00:00 25.1 6 Sudoeste 18 Oeste 0 914.8 -0.9 26
2019-09-25 16:00:00 25.6 5 Oeste 16 Oeste 0 914.9 -1.2 26
2019-09-25 15:00:00 25.2 6 Oeste 17 Noroeste 0 915.3 -1 28
2019-09-25 14:00:00 25.1 2 Nordeste 17 Este 0 915.7 -0.3 28
2019-09-25 13:00:00 23.5 6 Este 13 Este 0 916.1 0.5 34
2019-09-25 12:00:00 21.9 6 Este 13 Este 0 916.3 1.1 43
2019-09-25 11:00:00 20.5 5 Este 10 Este 0 916 1.2 49
2019-09-25 10:00:00 19.4 4 Este 10 Este 0 915.6 0.7 54
2019-09-25 09:00:00 16.6 3 Oeste 8 Oeste 0 915.2 -0.1 62
2019-09-25 08:00:00 16.9 4 Oeste 9 Oeste 0 914.8 -0.6 62
2019-09-25 07:00:00 16 2 Oeste 9 Noroeste 0 914.9 -0.9 66
2019-09-25 06:00:00 15.4 4 Oeste 9 Oeste 0 915.3 -1 66
2019-09-25 05:00:00 15.2 5 Oeste 10 Oeste 0 915.4 -0.9 63
2019-09-25 04:00:00 15.4 5 Oeste 8 Oeste 0 915.8 -0.9 60
2019-09-25 03:00:00 17.2 4 Oeste 7 Oeste 0 916.3 -0.5 53
2019-09-25 02:00:00 19.3 0 Calma 15 Oeste 0 916.3 -0.6 48
2019-09-25 01:00:00 20.1 4 Oeste 22 Noroeste 0 916.7 0 41
2019-09-25 00:00:00 20.3 9 Sudoeste 21 Oeste 0 916.8 0.4 39
2019-09-24 23:00:00 18.3 6 Oeste 13 Oeste 0 916.9 0.7 39
2019-09-24 22:00:00 19.6 5 Oeste 16 Sudoeste 0 916.7 0.6 35
2019-09-24 21:00:00 20.4 7 Oeste 14 Sudoeste 0 916.4 0.2 34
2019-09-24 20:00:00 22.9 6 Sudoeste 12 Oeste 0 916.2 -0.3 24
2019-09-24 19:00:00 25.1 4 Sudoeste 11 Noroeste 0 916.1 -0.7 22
2019-09-24 18:00:00 26.8 3 Sudoeste 13 Noroeste 0 916.2 -1 21
2019-09-24 17:00:00 26.6 4 Oeste 17 Sudoeste 0 916.5 -1.3 20
2019-09-24 16:00:00 27.3 2 Nordeste 14 Este 0 916.8 -1.4 19
2019-09-24 15:00:00 27.1 5 Este 18 Este 0 917.2 -1.2 19
2019-09-24 14:00:00 26 9 Este 19 Nordeste 0 917.8 -0.5 20
2019-09-24 13:00:00 24.3 9 Este 17 Este 0 918.2 0.6 24
2019-09-24 12:00:00 23.8 5 Este 12 Este 0 918.4 1 27
2019-09-24 11:00:00 22.6 5 Este 10 Este 0 918.3 1.5 30
2019-09-24 10:00:00 20.6 3 Este 8 Oeste 0 917.6 0.9 35
2019-09-24 09:00:00 15.5 4 Oeste 11 Oeste 0 917.4 0.5 46
2019-09-24 08:00:00 13 5 Oeste 11 Noroeste 0 916.8 0 46
2019-09-24 07:00:00 14 7 Oeste 11 Oeste 0 916.7 -0.3 46
2019-09-24 06:00:00 14.2 5 Oeste 10 Oeste 0 916.9 -0.5 45
2019-09-24 05:00:00 14.7 6 Oeste 10 Oeste 0 916.8 -0.7 43
2019-09-24 04:00:00 14.8 5 Oeste 11 Oeste 0 917 -0.8 38
2019-09-24 03:00:00 14.6 4 Oeste 11 Noroeste 0 917.4 -0.7 43
2019-09-24 02:00:00 14.5 6 Oeste 11 Oeste 0 917.5 -0.5 46
2019-09-24 01:00:00 14.2 6 Oeste 9 Oeste 0 917.8 0 48
2019-09-24 00:00:00 14.4 6 Oeste 10 Noroeste 0 918.1 0.9 48
2019-09-23 23:00:00 14.7 6 Oeste 12 Oeste 0 918 1.1 48
2019-09-23 22:00:00 16.1 8 Oeste 11 Oeste 0 917.8 1.1 43
2019-09-23 21:00:00 18.8 4 Oeste 10 Oeste 0 917.2 0.6 35
2019-09-23 20:00:00 21 2 Oeste 5 Sudoeste 0 916.9 0.3 32
2019-09-23 19:00:00 23.4 2 Nordeste 13 Este 0 916.7 0 27
2019-09-23 18:00:00 24.4 4 Noroeste 13 Noroeste 0 916.6 -0.1 25
2019-09-23 17:00:00 24.9 3 Noroeste 14 Noroeste 0 916.6 -0.4 24
2019-09-23 16:00:00 25.5 3 Nordeste 11 Este 0 916.7 -0.5 24
2019-09-23 15:00:00 24.1 6 Este 15 Este 0 916.7 -0.9 25
2019-09-23 14:00:00 23.6 3 Nordeste 15 Este 0 917 -0.6 27
2019-09-23 13:00:00 21.6 4 Este 11 Este 0 917.2 0.2 29
2019-09-23 12:00:00 19.8 3 Este 13 Este 0 917.6 1 35
2019-09-23 11:00:00 19.1 4 Este 10 Este 0 917.6 1.4 39
2019-09-23 10:00:00 17 3 Este 7 Este 0 917 1.3 45
2019-09-23 09:00:00 12.2 5 Oeste 9 Oeste 0 916.6 1.3 67
2019-09-23 08:00:00 10.5 5 Oeste 9 Oeste 0 916.2 1.1 68
2019-09-23 07:00:00 10.6 7 Oeste 10 Oeste 0 915.7 0.5 67
2019-09-23 06:00:00 11.1 5 Oeste 11 Noroeste 0 915.3 -0.1 65
2019-09-23 05:00:00 11.2 6 Oeste 9 Noroeste 0 915.1 -0.6 63
2019-09-23 04:00:00 12 5 Oeste 10 Sudoeste 0 915.2 -0.8 60
2019-09-23 03:00:00 13.9 2 Oeste 9 Sudoeste 0 915.4 -0.6 54
2019-09-23 02:00:00 13.3 3 Oeste 13 Noroeste 0 915.7 -0.3 65
2019-09-23 01:00:00 14.4 2 Oeste 8 Nordeste 0 916 0.7 55
2019-09-23 00:00:00 14.2 0 Calma 10 Oeste 0 916 1 59
2019-09-22 23:00:00 14.7 4 Noroeste 19 Oeste 0 916 1.5 57
2019-09-22 22:00:00 13.7 5 Oeste 12 Noroeste 0 915.3 0.9 63
2019-09-22 21:00:00 13.3 6 Oeste 11 Oeste 0 915 0.6 56
2019-09-22 20:00:00 15 4 Oeste 7 Oeste 0 914.5 0.6 52
2019-09-22 19:00:00 17.8 3 Oeste 17 Oeste 0 914.4 0.5 38
2019-09-22 18:00:00 18.5 5 Oeste 15 Sudoeste 0 914.4 0.6 36
2019-09-22 17:00:00 18.8 5 Oeste 20 Sudoeste 0.1 913.9 -0.3 35
2019-09-22 16:00:00 18.5 6 Oeste 22 Sudoeste 0 913.9 -0.2 49
2019-09-22 15:00:00 18.7 7 Oeste 21 Oeste 0 913.8 0 51
2019-09-22 14:00:00 16.7 6 Oeste 22 Noroeste 0.1 914.2 0.6 66
2019-09-22 13:00:00 17 6 Oeste 19 Oeste 1 914.1 0.8 69
2019-09-22 12:00:00 16.9 6 Oeste 15 Sudoeste 1.7 913.8 1 72
2019-09-22 11:00:00 16.5 3 Oeste 17 Sudoeste 1.7 913.6 1.5 72
2019-09-22 10:00:00 16.1 4 Oeste 17 Sudoeste 0 913.3 1.5 71
2019-09-22 09:00:00 16.2 6 Sudoeste 19 Sudoeste 0 912.8 1.2 69
2019-09-22 08:00:00 16 6 Oeste 21 Sudoeste 0 912.1 0.4 68
2019-09-22 07:00:00 15.8 8 Oeste 23 Oeste 0 911.8 -0.3 66
2019-09-22 06:00:00 15.8 9 Oeste 23 Sudoeste 0 911.6 -0.8 66
2019-09-22 05:00:00 15.8 6 Oeste 18 Oeste 0 911.7 -0.6 65
2019-09-22 04:00:00 16 4 Sudoeste 15 Noroeste 0 912.1 -0.5 65
2019-09-22 03:00:00 16.6 4 Oeste 15 Sudoeste 0 912.4 -0.3 63
2019-09-22 02:00:00 16.5 3 Sudoeste 12 Sudoeste 0 912.3 -0.4 60
2019-09-22 01:00:00 16.1 5 Noroeste 15 Oeste 0 912.6 0.2 63
2019-09-22 00:00:00 16.8 5 Oeste 12 Noroeste 0 912.7 0.7 58
2019-09-21 23:00:00 16.8 4 Oeste 10 Noroeste 0 912.7 0.8 60
2019-09-21 22:00:00 17.3 2 Oeste 10 Oeste 0 912.4 0.8 59
2019-09-21 21:00:00 17.4 5 Oeste 12 Noroeste 0 912 0.5 62
2019-09-21 20:00:00 17.2 6 Oeste 18 Sudoeste 0 911.9 0 65
2019-09-21 19:00:00 18.4 6 Oeste 13 Oeste 0 911.6 -0.2 51
2019-09-21 18:00:00 19 5 Oeste 14 Oeste 0 911.5 -0.3 47
2019-09-21 17:00:00 19.5 4 Oeste 15 Sudoeste 0 911.9 -0.6 48
2019-09-21 16:00:00 20.4 3 Oeste 14 Oeste 0 911.8 -0.7 43
2019-09-21 15:00:00 21.6 2 Sur 13 Oeste 0 911.8 -0.8 43
2019-09-21 14:00:00 20.1 5 Oeste 19 Sudoeste 0 912.5 0.3 47
2019-09-21 13:00:00 20.6 3 Sudoeste 14 Oeste 0 912.5 0.7 45
2019-09-21 12:00:00 19.2 4 Oeste 15 Oeste 0 912.6 1.5 52
2019-09-21 11:00:00 17.7 5 Noroeste 12 Noroeste 0 912.2 1.2 56
2019-09-21 10:00:00 16.5 0 Calma 7 Este 0 911.8 1.2 61
2019-09-21 09:00:00 16.3 0 Calma 10 Oeste 0 911.1 0 60
2019-09-21 08:00:00 16.6 4 Oeste 12 Sudoeste 0 911 0 49
2019-09-21 07:00:00 15.4 3 Oeste 8 Oeste 0 910.6 -0.6 69
2019-09-21 06:00:00 16 4 Oeste 13 Oeste 0 911.1 -0.4 69
2019-09-21 05:00:00 16.5 0 Calma 11 Oeste 0 911 -0.8 68
2019-09-21 04:00:00 15.6 0 Calma 8 Sudoeste 0 911.2 -1 70
2019-09-21 03:00:00 17.2 5 Oeste 13 Oeste 0 911.5 -1 63
2019-09-21 02:00:00 17.8 2 Sudeste 17 Sudoeste 0 911.8 -0.7 60
2019-09-21 01:00:00 18 3 Sudeste 15 Sur 0 912.2 0.1 61
2019-09-21 00:00:00 17.1 4 Oeste 14 Sudoeste 0 912.5 0.4 68
2019-09-20 23:00:00 16.6 3 Oeste 9 Noroeste 0 912.5 0.5 61
2019-09-20 22:00:00 16.8 3 Oeste 8 Noroeste 0 912.1 0.3 65
2019-09-20 21:00:00 18.5 3 Este 11 Oeste 0 912.1 0.1 62
2019-09-20 20:00:00 19.9 3 Sudoeste 13 Este 0 912 -0.1 53
2019-09-20 19:00:00 20.8 8 Este 16 Este 0 911.8 -0.2 48
2019-09-20 18:00:00 20.6 5 Este 19 Este 0 912 -0.3 46
2019-09-20 17:00:00 21.8 4 Sur 20 Sudeste 0 912.1 -0.7 43
2019-09-20 16:00:00 21.5 6 Este 21 Este 0 912 -0.9 43
2019-09-20 15:00:00 21.7 6 Este 17 Este 0 912.3 -0.6 45
2019-09-20 14:00:00 21.3 2 Sudoeste 18 Este 0 912.8 -0.1 46
2019-09-20 13:00:00 20.4 2 Oeste 22 Este 0 912.9 0.2 48
2019-09-20 12:00:00 20.4 6 Nordeste 18 Este 0 912.9 0.8 50
2019-09-20 11:00:00 19.4 5 Nordeste 26 Este 0 912.9 1.3 54
2019-09-20 10:00:00 18.1 4 Nordeste 15 Este 0 912.7 1 56
2019-09-20 09:00:00 17 0 Calma 9 Nordeste 0 912.1 0.4 55
2019-09-20 08:00:00 15.3 4 Oeste 8 Noroeste 0 911.6 -0.3 55
2019-09-20 07:00:00 16.5 5 Oeste 10 Noroeste 0 911.7 -0.8 49
2019-09-20 06:00:00 17.3 3 Oeste 24 Sur 0 911.7 -1.3 43
2019-09-20 05:00:00 19.7 2 Sudeste 23 Sudeste 0 911.9 -1.4 37
2019-09-20 04:00:00 20.5 5 Sudeste 17 Sudeste 0 912.5 -0.9 34
2019-09-20 03:00:00 20 4 Este 14 Este 0 913 -0.8 38
2019-09-20 02:00:00 17.4 0 Calma 12 Este 0 913.3 -0.6 45
2019-09-20 01:00:00 16.9 4 Oeste 9 Oeste 0 913.4 -0.1 48
2019-09-20 00:00:00 17.3 5 Oeste 10 Noroeste 0 913.8 0.6 50